sensor_id;sensor_type;location;lat;lon;timestamp;temperature;humidity
78315;SHT31;68596;52.080;4.662;2023-04-07T00:01:48;11.39;75.69
78315;SHT31;68596;52.080;4.662;2023-04-07T00:04:32;11.39;75.72
78315;SHT31;68596;52.080;4.662;2023-04-07T00:07:16;11.41;75.86
78315;SHT31;68596;52.080;4.662;2023-04-07T00:10:02;11.41;75.65
78315;SHT31;68596;52.080;4.662;2023-04-07T00:12:46;11.41;75.62
78315;SHT31;68596;52.080;4.662;2023-04-07T00:15:30;11.42;75.71
78315;SHT31;68596;52.080;4.662;2023-04-07T00:18:14;11.39;75.66
78315;SHT31;68596;52.080;4.662;2023-04-07T00:20:58;11.41;75.41
78315;SHT31;68596;52.080;4.662;2023-04-07T00:23:42;11.42;75.61
78315;SHT31;68596;52.080;4.662;2023-04-07T00:26:26;11.39;75.50
78315;SHT31;68596;52.080;4.662;2023-04-07T00:29:14;11.42;75.62
78315;SHT31;68596;52.080;4.662;2023-04-07T00:31:58;11.42;75.46
78315;SHT31;68596;52.080;4.662;2023-04-07T00:34:42;11.42;75.40
78315;SHT31;68596;52.080;4.662;2023-04-07T00:37:26;11.42;75.35
78315;SHT31;68596;52.080;4.662;2023-04-07T00:40:10;11.42;75.48
78315;SHT31;68596;52.080;4.662;2023-04-07T00:42:54;11.41;75.78
78315;SHT31;68596;52.080;4.662;2023-04-07T00:45:39;11.39;75.37
78315;SHT31;68596;52.080;4.662;2023-04-07T00:48:23;11.37;75.42
78315;SHT31;68596;52.080;4.662;2023-04-07T00:51:08;11.30;75.61
78315;SHT31;68596;52.080;4.662;2023-04-07T00:53:53;11.28;75.29
78315;SHT31;68596;52.080;4.662;2023-04-07T00:56:37;11.27;75.43
78315;SHT31;68596;52.080;4.662;2023-04-07T00:59:22;11.24;75.39
78315;SHT31;68596;52.080;4.662;2023-04-07T01:02:15;11.18;75.54
78315;SHT31;68596;52.080;4.662;2023-04-07T01:05:23;11.15;75.13
78315;SHT31;68596;52.080;4.662;2023-04-07T01:11:24;11.07;75.56
78315;SHT31;68596;52.080;4.662;2023-04-07T01:14:12;11.01;75.69
78315;SHT31;68596;52.080;4.662;2023-04-07T01:17:01;11.01;75.74
78315;SHT31;68596;52.080;4.662;2023-04-07T01:19:55;10.99;75.79
78315;SHT31;68596;52.080;4.662;2023-04-07T01:22:46;10.92;75.88
78315;SHT31;68596;52.080;4.662;2023-04-07T01:28:55;10.94;76.10
78315;SHT31;68596;52.080;4.662;2023-04-07T01:31:41;10.96;76.14
78315;SHT31;68596;52.080;4.662;2023-04-07T01:34:29;10.96;76.17
78315;SHT31;68596;52.080;4.662;2023-04-07T01:37:15;10.96;76.58
78315;SHT31;68596;52.080;4.662;2023-04-07T01:39:59;10.97;76.25
78315;SHT31;68596;52.080;4.662;2023-04-07T01:42:45;10.97;76.19
78315;SHT31;68596;52.080;4.662;2023-04-07T01:45:33;10.99;76.22
78315;SHT31;68596;52.080;4.662;2023-04-07T01:48:19;10.93;76.34
78315;SHT31;68596;52.080;4.662;2023-04-07T01:51:06;10.99;76.34
78315;SHT31;68596;52.080;4.662;2023-04-07T01:53:51;10.99;76.15
78315;SHT31;68596;52.080;4.662;2023-04-07T01:56:35;11.00;76.43
78315;SHT31;68596;52.080;4.662;2023-04-07T01:59:19;11.00;76.07
78315;SHT31;68596;52.080;4.662;2023-04-07T02:02:03;11.03;76.03
78315;SHT31;68596;52.080;4.662;2023-04-07T02:04:54;11.01;76.08
78315;SHT31;68596;52.080;4.662;2023-04-07T02:08:03;11.03;75.78
78315;SHT31;68596;52.080;4.662;2023-04-07T02:10:49;11.06;75.96
78315;SHT31;68596;52.080;4.662;2023-04-07T02:13:36;11.06;75.92
78315;SHT31;68596;52.080;4.662;2023-04-07T02:16:21;11.07;75.78
78315;SHT31;68596;52.080;4.662;2023-04-07T02:19:07;11.08;75.70
78315;SHT31;68596;52.080;4.662;2023-04-07T02:21:53;11.10;75.59
78315;SHT31;68596;52.080;4.662;2023-04-07T02:24:40;11.10;75.63
78315;SHT31;68596;52.080;4.662;2023-04-07T02:27:25;11.10;75.87
78315;SHT31;68596;52.080;4.662;2023-04-07T02:30:09;11.08;76.13
78315;SHT31;68596;52.080;4.662;2023-04-07T02:32:54;11.04;75.90
78315;SHT31;68596;52.080;4.662;2023-04-07T02:35:38;11.04;76.19
78315;SHT31;68596;52.080;4.662;2023-04-07T02:38:22;11.04;75.84
78315;SHT31;68596;52.080;4.662;2023-04-07T02:41:06;11.08;75.87
78315;SHT31;68596;52.080;4.662;2023-04-07T02:43:50;11.06;76.05
78315;SHT31;68596;52.080;4.662;2023-04-07T02:46:34;11.08;75.74
78315;SHT31;68596;52.080;4.662;2023-04-07T02:49:18;11.07;75.59
78315;SHT31;68596;52.080;4.662;2023-04-07T02:52:02;11.08;75.73
78315;SHT31;68596;52.080;4.662;2023-04-07T02:54:47;11.07;75.56
78315;SHT31;68596;52.080;4.662;2023-04-07T02:57:31;11.07;75.79
78315;SHT31;68596;52.080;4.662;2023-04-07T03:00:15;11.08;75.68
78315;SHT31;68596;52.080;4.662;2023-04-07T03:03:00;11.08;76.00
78315;SHT31;68596;52.080;4.662;2023-04-07T03:05:44;11.10;76.13
78315;SHT31;68596;52.080;4.662;2023-04-07T03:08:28;11.11;76.48
78315;SHT31;68596;52.080;4.662;2023-04-07T03:11:12;11.04;76.15
78315;SHT31;68596;52.080;4.662;2023-04-07T03:13:56;11.06;75.83
78315;SHT31;68596;52.080;4.662;2023-04-07T03:16:41;11.07;75.82
78315;SHT31;68596;52.080;4.662;2023-04-07T03:19:25;11.08;75.77
78315;SHT31;68596;52.080;4.662;2023-04-07T03:22:10;11.11;75.74
78315;SHT31;68596;52.080;4.662;2023-04-07T03:24:54;11.07;76.02
78315;SHT31;68596;52.080;4.662;2023-04-07T03:27:38;11.07;75.99
78315;SHT31;68596;52.080;4.662;2023-04-07T03:30:22;11.10;75.66
78315;SHT31;68596;52.080;4.662;2023-04-07T03:33:06;11.11;76.04
78315;SHT31;68596;52.080;4.662;2023-04-07T03:35:50;11.11;75.78
78315;SHT31;68596;52.080;4.662;2023-04-07T03:38:34;11.13;76.02
78315;SHT31;68596;52.080;4.662;2023-04-07T03:41:18;11.11;76.14
78315;SHT31;68596;52.080;4.662;2023-04-07T03:44:02;11.14;75.96
78315;SHT31;68596;52.080;4.662;2023-04-07T03:46:46;11.14;75.64
78315;SHT31;68596;52.080;4.662;2023-04-07T03:49:33;11.10;76.11
78315;SHT31;68596;52.080;4.662;2023-04-07T03:52:17;11.08;75.67
78315;SHT31;68596;52.080;4.662;2023-04-07T03:55:01;11.08;75.83
78315;SHT31;68596;52.080;4.662;2023-04-07T03:57:45;11.10;75.53
78315;SHT31;68596;52.080;4.662;2023-04-07T04:00:29;11.08;75.68
78315;SHT31;68596;52.080;4.662;2023-04-07T04:03:15;11.07;75.69
78315;SHT31;68596;52.080;4.662;2023-04-07T04:06:00;11.08;75.88
78315;SHT31;68596;52.080;4.662;2023-04-07T04:08:44;11.11;75.84
78315;SHT31;68596;52.080;4.662;2023-04-07T04:11:28;11.11;75.46
78315;SHT31;68596;52.080;4.662;2023-04-07T04:14:12;11.13;75.47
78315;SHT31;68596;52.080;4.662;2023-04-07T04:16:56;11.10;75.48
78315;SHT31;68596;52.080;4.662;2023-04-07T04:19:40;11.10;75.83
78315;SHT31;68596;52.080;4.662;2023-04-07T04:22:24;11.11;76.05
78315;SHT31;68596;52.080;4.662;2023-04-07T04:25:09;11.11;75.56
78315;SHT31;68596;52.080;4.662;2023-04-07T04:27:53;11.13;75.09
78315;SHT31;68596;52.080;4.662;2023-04-07T04:30:37;11.10;75.44
78315;SHT31;68596;52.080;4.662;2023-04-07T04:33:21;11.08;75.30
78315;SHT31;68596;52.080;4.662;2023-04-07T04:36:06;11.06;75.47
78315;SHT31;68596;52.080;4.662;2023-04-07T04:38:50;11.07;75.40
78315;SHT31;68596;52.080;4.662;2023-04-07T04:41:34;11.06;75.33
78315;SHT31;68596;52.080;4.662;2023-04-07T04:44:18;11.04;75.59
78315;SHT31;68596;52.080;4.662;2023-04-07T04:47:02;11.08;75.40
78315;SHT31;68596;52.080;4.662;2023-04-07T04:49:46;11.08;75.34
78315;SHT31;68596;52.080;4.662;2023-04-07T04:52:30;11.07;76.18
78315;SHT31;68596;52.080;4.662;2023-04-07T04:55:14;11.08;75.50
78315;SHT31;68596;52.080;4.662;2023-04-07T04:57:58;11.10;75.80
78315;SHT31;68596;52.080;4.662;2023-04-07T05:00:43;11.07;75.63
78315;SHT31;68596;52.080;4.662;2023-04-07T05:03:27;11.11;75.59
78315;SHT31;68596;52.080;4.662;2023-04-07T05:06:12;11.13;75.48
78315;SHT31;68596;52.080;4.662;2023-04-07T05:08:56;11.14;75.38
78315;SHT31;68596;52.080;4.662;2023-04-07T05:11:40;11.13;75.36
78315;SHT31;68596;52.080;4.662;2023-04-07T05:14:25;11.15;75.59
78315;SHT31;68596;52.080;4.662;2023-04-07T05:17:09;11.15;75.29
78315;SHT31;68596;52.080;4.662;2023-04-07T05:19:53;11.15;75.31
78315;SHT31;68596;52.080;4.662;2023-04-07T05:22:37;11.18;75.36
78315;SHT31;68596;52.080;4.662;2023-04-07T05:25:21;11.17;75.55
78315;SHT31;68596;52.080;4.662;2023-04-07T05:28:05;11.14;74.86
78315;SHT31;68596;52.080;4.662;2023-04-07T05:30:49;11.15;75.03
78315;SHT31;68596;52.080;4.662;2023-04-07T05:33:33;11.11;75.33
78315;SHT31;68596;52.080;4.662;2023-04-07T05:36:18;11.15;74.98
78315;SHT31;68596;52.080;4.662;2023-04-07T05:39:02;11.13;74.69
78315;SHT31;68596;52.080;4.662;2023-04-07T05:41:46;11.11;74.57
78315;SHT31;68596;52.080;4.662;2023-04-07T05:44:30;11.11;74.54
78315;SHT31;68596;52.080;4.662;2023-04-07T05:47:14;11.10;74.19
78315;SHT31;68596;52.080;4.662;2023-04-07T05:49:59;11.10;74.48
78315;SHT31;68596;52.080;4.662;2023-04-07T05:52:43;11.13;74.41
78315;SHT31;68596;52.080;4.662;2023-04-07T05:55:28;11.11;74.29
78315;SHT31;68596;52.080;4.662;2023-04-07T05:58:12;11.11;74.58
78315;SHT31;68596;52.080;4.662;2023-04-07T06:00:56;11.13;74.53
78315;SHT31;68596;52.080;4.662;2023-04-07T06:03:40;11.14;74.26
78315;SHT31;68596;52.080;4.662;2023-04-07T06:06:24;11.17;74.74
78315;SHT31;68596;52.080;4.662;2023-04-07T06:09:09;11.20;74.48
78315;SHT31;68596;52.080;4.662;2023-04-07T06:11:53;11.23;74.59
78315;SHT31;68596;52.080;4.662;2023-04-07T06:14:38;11.25;74.19
78315;SHT31;68596;52.080;4.662;2023-04-07T06:17:22;11.30;74.22
78315;SHT31;68596;52.080;4.662;2023-04-07T06:20:06;11.35;74.17
78315;SHT31;68596;52.080;4.662;2023-04-07T06:22:51;11.35;73.98
78315;SHT31;68596;52.080;4.662;2023-04-07T06:25:35;11.32;73.88
78315;SHT31;68596;52.080;4.662;2023-04-07T06:28:19;11.35;74.13
78315;SHT31;68596;52.080;4.662;2023-04-07T06:31:04;11.37;74.16
78315;SHT31;68596;52.080;4.662;2023-04-07T06:33:49;11.37;74.09
78315;SHT31;68596;52.080;4.662;2023-04-07T06:36:33;11.41;73.90
78315;SHT31;68596;52.080;4.662;2023-04-07T06:39:18;11.48;73.76
78315;SHT31;68596;52.080;4.662;2023-04-07T06:42:03;11.48;74.23
78315;SHT31;68596;52.080;4.662;2023-04-07T06:44:47;11.50;73.96
78315;SHT31;68596;52.080;4.662;2023-04-07T06:47:31;11.50;74.00
78315;SHT31;68596;52.080;4.662;2023-04-07T06:50:15;11.47;73.99
78315;SHT31;68596;52.080;4.662;2023-04-07T06:53:03;11.45;74.04
78315;SHT31;68596;52.080;4.662;2023-04-07T06:55:48;11.48;73.58
78315;SHT31;68596;52.080;4.662;2023-04-07T06:58:33;11.47;73.72
78315;SHT31;68596;52.080;4.662;2023-04-07T07:01:17;11.45;73.67
78315;SHT31;68596;52.080;4.662;2023-04-07T07:04:02;11.39;73.72
78315;SHT31;68596;52.080;4.662;2023-04-07T07:06:48;11.37;73.68
78315;SHT31;68596;52.080;4.662;2023-04-07T07:09:32;11.37;73.69
78315;SHT31;68596;52.080;4.662;2023-04-07T07:12:16;11.37;73.92
78315;SHT31;68596;52.080;4.662;2023-04-07T07:15:01;11.45;73.60
78315;SHT31;68596;52.080;4.662;2023-04-07T07:17:45;11.48;73.31
78315;SHT31;68596;52.080;4.662;2023-04-07T07:20:29;11.50;73.05
78315;SHT31;68596;52.080;4.662;2023-04-07T07:23:13;11.48;72.71
78315;SHT31;68596;52.080;4.662;2023-04-07T07:25:57;11.45;72.76
78315;SHT31;68596;52.080;4.662;2023-04-07T07:28:41;11.47;73.02
78315;SHT31;68596;52.080;4.662;2023-04-07T07:31:25;11.42;72.97
78315;SHT31;68596;52.080;4.662;2023-04-07T07:34:09;11.42;72.94
78315;SHT31;68596;52.080;4.662;2023-04-07T07:36:53;11.39;73.30
78315;SHT31;68596;52.080;4.662;2023-04-07T07:39:37;11.39;73.38
78315;SHT31;68596;52.080;4.662;2023-04-07T07:42:21;11.45;72.94
78315;SHT31;68596;52.080;4.662;2023-04-07T07:45:06;11.42;73.03
78315;SHT31;68596;52.080;4.662;2023-04-07T07:47:50;11.39;73.09
78315;SHT31;68596;52.080;4.662;2023-04-07T07:50:34;11.44;73.34
78315;SHT31;68596;52.080;4.662;2023-04-07T07:53:18;11.44;73.24
78315;SHT31;68596;52.080;4.662;2023-04-07T07:56:02;11.45;73.13
78315;SHT31;68596;52.080;4.662;2023-04-07T07:58:46;11.42;73.29
78315;SHT31;68596;52.080;4.662;2023-04-07T08:01:31;11.45;73.12
78315;SHT31;68596;52.080;4.662;2023-04-07T08:04:15;11.52;73.02
78315;SHT31;68596;52.080;4.662;2023-04-07T08:06:59;11.57;73.07
78315;SHT31;68596;52.080;4.662;2023-04-07T08:09:44;11.55;72.82
78315;SHT31;68596;52.080;4.662;2023-04-07T08:12:28;11.57;72.59
78315;SHT31;68596;52.080;4.662;2023-04-07T08:15:12;11.57;72.46
78315;SHT31;68596;52.080;4.662;2023-04-07T08:17:56;11.57;72.36
78315;SHT31;68596;52.080;4.662;2023-04-07T08:20:40;11.59;72.40
78315;SHT31;68596;52.080;4.662;2023-04-07T08:23:24;11.54;71.90
78315;SHT31;68596;52.080;4.662;2023-04-07T08:26:09;11.54;72.56
78315;SHT31;68596;52.080;4.662;2023-04-07T08:28:53;11.54;72.21
78315;SHT31;68596;52.080;4.662;2023-04-07T08:31:38;11.58;72.26
78315;SHT31;68596;52.080;4.662;2023-04-07T08:34:24;11.58;71.94
78315;SHT31;68596;52.080;4.662;2023-04-07T08:37:08;11.57;72.29
78315;SHT31;68596;52.080;4.662;2023-04-07T08:39:52;11.57;72.59
78315;SHT31;68596;52.080;4.662;2023-04-07T08:42:40;11.64;72.53
78315;SHT31;68596;52.080;4.662;2023-04-07T08:45:25;11.69;72.33
78315;SHT31;68596;52.080;4.662;2023-04-07T08:48:16;11.68;71.92
78315;SHT31;68596;52.080;4.662;2023-04-07T08:51:05;11.69;71.83
78315;SHT31;68596;52.080;4.662;2023-04-07T08:53:53;11.71;71.72
78315;SHT31;68596;52.080;4.662;2023-04-07T08:56:39;11.72;71.80
78315;SHT31;68596;52.080;4.662;2023-04-07T08:59:26;11.72;71.98
78315;SHT31;68596;52.080;4.662;2023-04-07T09:02:13;11.74;71.71
78315;SHT31;68596;52.080;4.662;2023-04-07T09:04:59;11.78;71.94
78315;SHT31;68596;52.080;4.662;2023-04-07T09:07:43;11.76;71.90
78315;SHT31;68596;52.080;4.662;2023-04-07T09:10:27;11.81;71.54
78315;SHT31;68596;52.080;4.662;2023-04-07T09:13:11;11.82;71.55
78315;SHT31;68596;52.080;4.662;2023-04-07T09:15:56;11.78;71.57
78315;SHT31;68596;52.080;4.662;2023-04-07T09:18:40;11.81;71.62
78315;SHT31;68596;52.080;4.662;2023-04-07T09:21:25;11.88;71.97
78315;SHT31;68596;52.080;4.662;2023-04-07T09:24:27;11.88;71.48
78315;SHT31;68596;52.080;4.662;2023-04-07T09:27:17;11.88;71.38
78315;SHT31;68596;52.080;4.662;2023-04-07T09:30:13;11.88;71.43
78315;SHT31;68596;52.080;4.662;2023-04-07T09:33:00;11.86;71.68
78315;SHT31;68596;52.080;4.662;2023-04-07T09:35:51;11.86;71.81
78315;SHT31;68596;52.080;4.662;2023-04-07T09:38:40;11.85;71.62
78315;SHT31;68596;52.080;4.662;2023-04-07T09:41:26;11.86;71.82
78315;SHT31;68596;52.080;4.662;2023-04-07T09:44:10;11.85;71.67
78315;SHT31;68596;52.080;4.662;2023-04-07T09:46:56;11.86;71.45
78315;SHT31;68596;52.080;4.662;2023-04-07T09:49:52;11.85;71.45
78315;SHT31;68596;52.080;4.662;2023-04-07T09:52:52;11.89;71.33
78315;SHT31;68596;52.080;4.662;2023-04-07T09:55:38;11.95;71.37
78315;SHT31;68596;52.080;4.662;2023-04-07T09:58:24;11.89;71.33
78315;SHT31;68596;52.080;4.662;2023-04-07T10:01:09;11.96;71.17
78315;SHT31;68596;52.080;4.662;2023-04-07T10:03:54;11.98;71.20
78315;SHT31;68596;52.080;4.662;2023-04-07T10:06:40;12.02;71.28
78315;SHT31;68596;52.080;4.662;2023-04-07T10:09:26;12.02;71.25
78315;SHT31;68596;52.080;4.662;2023-04-07T10:12:12;12.05;71.26
78315;SHT31;68596;52.080;4.662;2023-04-07T10:14:59;12.09;70.86
78315;SHT31;68596;52.080;4.662;2023-04-07T10:17:46;12.13;71.14
78315;SHT31;68596;52.080;4.662;2023-04-07T10:20:38;12.10;70.52
78315;SHT31;68596;52.080;4.662;2023-04-07T10:26:34;12.22;71.28
78315;SHT31;68596;52.080;4.662;2023-04-07T10:29:21;12.25;70.57
78315;SHT31;68596;52.080;4.662;2023-04-07T10:32:07;12.28;71.01
78315;SHT31;68596;52.080;4.662;2023-04-07T10:37:40;12.29;70.84
78315;SHT31;68596;52.080;4.662;2023-04-07T10:43:10;12.39;70.66
78315;SHT31;68596;52.080;4.662;2023-04-07T10:45:55;12.39;71.40
78315;SHT31;68596;52.080;4.662;2023-04-07T10:48:42;12.50;70.96
78315;SHT31;68596;52.080;4.662;2023-04-07T10:51:26;12.63;71.12
78315;SHT31;68596;52.080;4.662;2023-04-07T10:54:19;12.67;70.58
78315;SHT31;68596;52.080;4.662;2023-04-07T10:57:12;12.67;70.76
78315;SHT31;68596;52.080;4.662;2023-04-07T11:02:54;12.50;70.60
78315;SHT31;68596;52.080;4.662;2023-04-07T11:05:39;12.44;70.97
78315;SHT31;68596;52.080;4.662;2023-04-07T11:08:33;12.36;70.96
78315;SHT31;68596;52.080;4.662;2023-04-07T11:11:35;12.33;71.72
78315;SHT31;68596;52.080;4.662;2023-04-07T11:14:25;12.33;71.47
78315;SHT31;68596;52.080;4.662;2023-04-07T11:17:14;12.34;71.64
78315;SHT31;68596;52.080;4.662;2023-04-07T11:19:59;12.37;71.27
78315;SHT31;68596;52.080;4.662;2023-04-07T11:22:58;12.34;71.66
78315;SHT31;68596;52.080;4.662;2023-04-07T11:25:44;12.41;71.74
78315;SHT31;68596;52.080;4.662;2023-04-07T11:28:29;12.41;71.42
78315;SHT31;68596;52.080;4.662;2023-04-07T11:31:25;12.46;71.12
78315;SHT31;68596;52.080;4.662;2023-04-07T11:34:10;12.49;71.05
78315;SHT31;68596;52.080;4.662;2023-04-07T11:36:54;12.46;70.85
78315;SHT31;68596;52.080;4.662;2023-04-07T11:39:42;12.40;71.03
78315;SHT31;68596;52.080;4.662;2023-04-07T11:42:37;12.37;71.19
78315;SHT31;68596;52.080;4.662;2023-04-07T11:45:22;12.40;71.14
78315;SHT31;68596;52.080;4.662;2023-04-07T11:48:25;12.37;71.44
78315;SHT31;68596;52.080;4.662;2023-04-07T11:51:17;12.37;71.29
78315;SHT31;68596;52.080;4.662;2023-04-07T11:54:02;12.40;71.05
78315;SHT31;68596;52.080;4.662;2023-04-07T11:56:47;12.49;71.01
78315;SHT31;68596;52.080;4.662;2023-04-07T11:59:31;12.50;71.21
78315;SHT31;68596;52.080;4.662;2023-04-07T12:02:32;12.54;71.11
78315;SHT31;68596;52.080;4.662;2023-04-07T12:05:17;12.60;70.72
78315;SHT31;68596;52.080;4.662;2023-04-07T12:08:01;12.60;70.90
78315;SHT31;68596;52.080;4.662;2023-04-07T12:10:46;12.64;70.66
78315;SHT31;68596;52.080;4.662;2023-04-07T12:13:31;12.65;70.73
78315;SHT31;68596;52.080;4.662;2023-04-07T12:16:15;12.73;71.00
78315;SHT31;68596;52.080;4.662;2023-04-07T12:18:59;12.79;70.35
78315;SHT31;68596;52.080;4.662;2023-04-07T12:21:43;12.74;70.19
78315;SHT31;68596;52.080;4.662;2023-04-07T12:24:28;12.73;70.03
78315;SHT31;68596;52.080;4.662;2023-04-07T12:27:12;12.68;69.88
78315;SHT31;68596;52.080;4.662;2023-04-07T12:29:56;12.65;69.94
78315;SHT31;68596;52.080;4.662;2023-04-07T12:32:40;12.60;70.31
78315;SHT31;68596;52.080;4.662;2023-04-07T12:35:24;12.54;70.53
78315;SHT31;68596;52.080;4.662;2023-04-07T12:38:08;12.50;70.24
78315;SHT31;68596;52.080;4.662;2023-04-07T12:40:53;12.47;70.21
78315;SHT31;68596;52.080;4.662;2023-04-07T12:43:37;12.49;70.44
78315;SHT31;68596;52.080;4.662;2023-04-07T12:46:21;12.49;70.68
78315;SHT31;68596;52.080;4.662;2023-04-07T12:49:05;12.49;70.50
78315;SHT31;68596;52.080;4.662;2023-04-07T12:51:50;12.47;70.64
78315;SHT31;68596;52.080;4.662;2023-04-07T12:54:34;12.50;70.91
78315;SHT31;68596;52.080;4.662;2023-04-07T12:57:18;12.54;70.68
78315;SHT31;68596;52.080;4.662;2023-04-07T13:00:03;12.57;70.56
78315;SHT31;68596;52.080;4.662;2023-04-07T13:02:47;12.61;70.79
78315;SHT31;68596;52.080;4.662;2023-04-07T13:05:31;12.63;70.42
78315;SHT31;68596;52.080;4.662;2023-04-07T13:08:15;12.64;70.80
78315;SHT31;68596;52.080;4.662;2023-04-07T13:10:59;12.67;70.68
78315;SHT31;68596;52.080;4.662;2023-04-07T13:13:43;12.64;69.96
78315;SHT31;68596;52.080;4.662;2023-04-07T13:16:27;12.61;70.54
78315;SHT31;68596;52.080;4.662;2023-04-07T13:19:11;12.64;70.16
78315;SHT31;68596;52.080;4.662;2023-04-07T13:21:55;12.64;70.01
78315;SHT31;68596;52.080;4.662;2023-04-07T13:24:39;12.63;70.20
78315;SHT31;68596;52.080;4.662;2023-04-07T13:27:23;12.60;70.37
78315;SHT31;68596;52.080;4.662;2023-04-07T13:30:08;12.57;69.99
78315;SHT31;68596;52.080;4.662;2023-04-07T13:32:52;12.53;70.26
78315;SHT31;68596;52.080;4.662;2023-04-07T13:35:36;12.60;70.47
78315;SHT31;68596;52.080;4.662;2023-04-07T13:38:20;12.63;70.52
78315;SHT31;68596;52.080;4.662;2023-04-07T13:41:04;12.61;69.89
78315;SHT31;68596;52.080;4.662;2023-04-07T13:43:49;12.60;69.89
78315;SHT31;68596;52.080;4.662;2023-04-07T13:46:33;12.56;69.92
78315;SHT31;68596;52.080;4.662;2023-04-07T13:49:18;12.54;70.76
78315;SHT31;68596;52.080;4.662;2023-04-07T13:52:02;12.50;70.60
78315;SHT31;68596;52.080;4.662;2023-04-07T13:54:46;12.46;70.72
78315;SHT31;68596;52.080;4.662;2023-04-07T13:57:31;12.43;70.60
78315;SHT31;68596;52.080;4.662;2023-04-07T14:00:15;12.39;70.88
78315;SHT31;68596;52.080;4.662;2023-04-07T14:03:00;12.37;70.96
78315;SHT31;68596;52.080;4.662;2023-04-07T14:05:44;12.36;71.14
78315;SHT31;68596;52.080;4.662;2023-04-07T14:08:28;12.34;71.35
78315;SHT31;68596;52.080;4.662;2023-04-07T14:11:18;12.36;71.36
78315;SHT31;68596;52.080;4.662;2023-04-07T14:14:02;12.39;71.39
78315;SHT31;68596;52.080;4.662;2023-04-07T14:16:47;12.39;71.40
78315;SHT31;68596;52.080;4.662;2023-04-07T14:19:33;12.37;71.17
78315;SHT31;68596;52.080;4.662;2023-04-07T14:22:17;12.34;71.25
78315;SHT31;68596;52.080;4.662;2023-04-07T14:25:02;12.34;71.23
78315;SHT31;68596;52.080;4.662;2023-04-07T14:27:47;12.39;70.85
78315;SHT31;68596;52.080;4.662;2023-04-07T14:30:34;12.39;71.39
78315;SHT31;68596;52.080;4.662;2023-04-07T14:33:21;12.41;71.10
78315;SHT31;68596;52.080;4.662;2023-04-07T14:36:06;12.44;71.15
78315;SHT31;68596;52.080;4.662;2023-04-07T14:38:50;12.44;71.21
78315;SHT31;68596;52.080;4.662;2023-04-07T14:41:34;12.44;70.77
78315;SHT31;68596;52.080;4.662;2023-04-07T14:44:18;12.44;70.75
78315;SHT31;68596;52.080;4.662;2023-04-07T14:47:02;12.40;70.94
78315;SHT31;68596;52.080;4.662;2023-04-07T14:49:47;12.39;70.60
78315;SHT31;68596;52.080;4.662;2023-04-07T14:52:31;12.36;70.94
78315;SHT31;68596;52.080;4.662;2023-04-07T14:55:16;12.34;71.11
78315;SHT31;68596;52.080;4.662;2023-04-07T14:58:01;12.37;71.00
78315;SHT31;68596;52.080;4.662;2023-04-07T15:00:45;12.34;70.94
78315;SHT31;68596;52.080;4.662;2023-04-07T15:03:29;12.36;71.37
78315;SHT31;68596;52.080;4.662;2023-04-07T15:06:13;12.37;70.63
78315;SHT31;68596;52.080;4.662;2023-04-07T15:08:58;12.37;70.90
78315;SHT31;68596;52.080;4.662;2023-04-07T15:11:42;12.34;71.19
78315;SHT31;68596;52.080;4.662;2023-04-07T15:14:27;12.33;70.89
78315;SHT31;68596;52.080;4.662;2023-04-07T15:17:11;12.36;71.24
78315;SHT31;68596;52.080;4.662;2023-04-07T15:19:55;12.34;71.14
78315;SHT31;68596;52.080;4.662;2023-04-07T15:22:39;12.40;71.49
78315;SHT31;68596;52.080;4.662;2023-04-07T15:25:23;12.41;71.17
78315;SHT31;68596;52.080;4.662;2023-04-07T15:28:08;12.44;70.99
78315;SHT31;68596;52.080;4.662;2023-04-07T15:30:52;12.47;71.02
78315;SHT31;68596;52.080;4.662;2023-04-07T15:33:38;12.47;71.05
78315;SHT31;68596;52.080;4.662;2023-04-07T15:36:22;12.43;71.02
78315;SHT31;68596;52.080;4.662;2023-04-07T15:39:07;12.47;71.27
78315;SHT31;68596;52.080;4.662;2023-04-07T15:41:51;12.47;71.17
78315;SHT31;68596;52.080;4.662;2023-04-07T15:44:35;12.43;71.04
78315;SHT31;68596;52.080;4.662;2023-04-07T15:47:22;12.39;71.13
78315;SHT31;68596;52.080;4.662;2023-04-07T15:50:07;12.37;71.27
78315;SHT31;68596;52.080;4.662;2023-04-07T15:52:51;12.39;71.21
78315;SHT31;68596;52.080;4.662;2023-04-07T15:55:35;12.36;71.38
78315;SHT31;68596;52.080;4.662;2023-04-07T15:58:19;12.33;71.28
78315;SHT31;68596;52.080;4.662;2023-04-07T16:01:04;12.33;71.30
78315;SHT31;68596;52.080;4.662;2023-04-07T16:03:47;12.30;71.28
78315;SHT31;68596;52.080;4.662;2023-04-07T16:06:32;12.32;71.46
78315;SHT31;68596;52.080;4.662;2023-04-07T16:09:16;12.32;71.26
78315;SHT31;68596;52.080;4.662;2023-04-07T16:12:00;12.28;71.33
78315;SHT31;68596;52.080;4.662;2023-04-07T16:14:44;12.26;71.39
78315;SHT31;68596;52.080;4.662;2023-04-07T16:17:28;12.26;71.42
78315;SHT31;68596;52.080;4.662;2023-04-07T16:20:12;12.26;71.64
78315;SHT31;68596;52.080;4.662;2023-04-07T16:22:57;12.25;71.65
78315;SHT31;68596;52.080;4.662;2023-04-07T16:25:41;12.29;71.85
78315;SHT31;68596;52.080;4.662;2023-04-07T16:28:25;12.29;71.72
78315;SHT31;68596;52.080;4.662;2023-04-07T16:31:09;12.29;71.61
78315;SHT31;68596;52.080;4.662;2023-04-07T16:33:55;12.28;71.65
78315;SHT31;68596;52.080;4.662;2023-04-07T16:36:39;12.26;71.73
78315;SHT31;68596;52.080;4.662;2023-04-07T16:39:23;12.26;72.09
78315;SHT31;68596;52.080;4.662;2023-04-07T16:42:07;12.20;72.21
78315;SHT31;68596;52.080;4.662;2023-04-07T16:44:51;12.19;72.36
78315;SHT31;68596;52.080;4.662;2023-04-07T16:47:36;12.22;72.47
78315;SHT31;68596;52.080;4.662;2023-04-07T16:50:21;12.19;72.57
78315;SHT31;68596;52.080;4.662;2023-04-07T16:53:05;12.20;72.52
78315;SHT31;68596;52.080;4.662;2023-04-07T16:55:49;12.20;72.70
78315;SHT31;68596;52.080;4.662;2023-04-07T16:58:33;12.18;72.58
78315;SHT31;68596;52.080;4.662;2023-04-07T17:01:18;12.18;72.66
78315;SHT31;68596;52.080;4.662;2023-04-07T17:04:03;12.19;72.46
78315;SHT31;68596;52.080;4.662;2023-04-07T17:06:46;12.15;72.59
78315;SHT31;68596;52.080;4.662;2023-04-07T17:09:31;12.18;72.73
78315;SHT31;68596;52.080;4.662;2023-04-07T17:12:15;12.13;72.83
78315;SHT31;68596;52.080;4.662;2023-04-07T17:15:00;12.12;72.85
78315;SHT31;68596;52.080;4.662;2023-04-07T17:17:44;12.10;72.53
78315;SHT31;68596;52.080;4.662;2023-04-07T17:20:28;12.12;72.73
78315;SHT31;68596;52.080;4.662;2023-04-07T17:23:12;12.15;72.48
78315;SHT31;68596;52.080;4.662;2023-04-07T17:25:57;12.13;72.91
78315;SHT31;68596;52.080;4.662;2023-04-07T17:28:44;12.12;72.94
78315;SHT31;68596;52.080;4.662;2023-04-07T17:31:28;12.10;72.76
78315;SHT31;68596;52.080;4.662;2023-04-07T17:34:12;12.09;72.80
78315;SHT31;68596;52.080;4.662;2023-04-07T17:36:56;12.08;72.93
78315;SHT31;68596;52.080;4.662;2023-04-07T17:39:40;12.06;73.14
78315;SHT31;68596;52.080;4.662;2023-04-07T17:42:24;12.08;72.91